Bay Center, Washington
Current Conditions -  °F | °C
As of 7:53 AM on Thursday 18 Dec 2014 (Local Time) from KHQM Reporting Station
Overcast Overcast  
Wind Chill: 39°   Ceiling: 7500
Heat Index: 44°   Visibility: 8mi
Dew Point: 43°   Wind: 9mph
Humidity: 96%   Direction: 70°ENE
Pressure: 29.87"   Gusts: NA
Location:  46.63°N, 123.96°W
Report Text: KHQM 181553Z AUTO 07008KT 8SM SCT038 BKN075 OVC095 07/06 A2987 RMK AO2 SLP119 T00670061
Loading
Personal Weather Stations






























Interactive Weather Map New forecast layout! Learn more

10-Day Weather Forecast

Advertisements
Track Severe Weather on mobile